sensor_id;sensor_type;location;lat;lon;timestamp;P1;durP1;ratioP1;P2;durP2;ratioP2
70132;SDS011;57495;49.922;7.966;2023-02-08T00:00:39;15.73;;;7.73;;
70132;SDS011;57495;49.922;7.966;2023-02-08T00:02:41;14.70;;;6.88;;
70132;SDS011;57495;49.922;7.966;2023-02-08T00:04:44;14.55;;;7.25;;
70132;SDS011;57495;49.922;7.966;2023-02-08T00:06:45;15.13;;;7.32;;
70132;SDS011;57495;49.922;7.966;2023-02-08T00:08:46;17.15;;;7.32;;
70132;SDS011;57495;49.922;7.966;2023-02-08T00:10:48;16.17;;;8.07;;
70132;SDS011;57495;49.922;7.966;2023-02-08T00:12:49;15.10;;;7.95;;
70132;SDS011;57495;49.922;7.966;2023-02-08T00:14:52;16.42;;;7.72;;
70132;SDS011;57495;49.922;7.966;2023-02-08T00:16:53;15.02;;;7.65;;
70132;SDS011;57495;49.922;7.966;2023-02-08T00:18:55;15.23;;;7.72;;
70132;SDS011;57495;49.922;7.966;2023-02-08T00:20:58;14.90;;;6.97;;
70132;SDS011;57495;49.922;7.966;2023-02-08T00:22:59;16.35;;;7.10;;
70132;SDS011;57495;49.922;7.966;2023-02-08T00:25:01;14.57;;;7.47;;
70132;SDS011;57495;49.922;7.966;2023-02-08T00:27:02;15.45;;;7.63;;
70132;SDS011;57495;49.922;7.966;2023-02-08T00:29:04;14.68;;;7.57;;
70132;SDS011;57495;49.922;7.966;2023-02-08T00:31:05;15.70;;;6.53;;
70132;SDS011;57495;49.922;7.966;2023-02-08T00:33:07;13.90;;;7.22;;
70132;SDS011;57495;49.922;7.966;2023-02-08T00:35:08;13.52;;;7.15;;
70132;SDS011;57495;49.922;7.966;2023-02-08T00:37:11;14.13;;;7.22;;
70132;SDS011;57495;49.922;7.966;2023-02-08T00:39:12;13.95;;;7.45;;
70132;SDS011;57495;49.922;7.966;2023-02-08T00:41:14;15.53;;;7.57;;
70132;SDS011;57495;49.922;7.966;2023-02-08T00:43:15;15.50;;;7.93;;
70132;SDS011;57495;49.922;7.966;2023-02-08T00:45:17;14.68;;;7.82;;
70132;SDS011;57495;49.922;7.966;2023-02-08T00:47:19;15.88;;;7.80;;
70132;SDS011;57495;49.922;7.966;2023-02-08T00:49:20;15.00;;;8.65;;
70132;SDS011;57495;49.922;7.966;2023-02-08T00:51:21;19.20;;;9.33;;
70132;SDS011;57495;49.922;7.966;2023-02-08T00:53:24;20.10;;;10.52;;
70132;SDS011;57495;49.922;7.966;2023-02-08T00:55:26;19.05;;;9.82;;
70132;SDS011;57495;49.922;7.966;2023-02-08T00:57:27;18.98;;;9.10;;
70132;SDS011;57495;49.922;7.966;2023-02-08T00:59:29;16.02;;;8.23;;
70132;SDS011;57495;49.922;7.966;2023-02-08T01:01:30;15.60;;;7.53;;
70132;SDS011;57495;49.922;7.966;2023-02-08T01:03:32;16.23;;;7.38;;
70132;SDS011;57495;49.922;7.966;2023-02-08T01:05:35;13.90;;;7.43;;
70132;SDS011;57495;49.922;7.966;2023-02-08T01:07:37;14.52;;;7.05;;
70132;SDS011;57495;49.922;7.966;2023-02-08T01:09:40;15.63;;;6.90;;
70132;SDS011;57495;49.922;7.966;2023-02-08T01:11:42;13.73;;;6.87;;
70132;SDS011;57495;49.922;7.966;2023-02-08T01:13:43;14.80;;;7.00;;
70132;SDS011;57495;49.922;7.966;2023-02-08T01:15:45;16.20;;;7.57;;
70132;SDS011;57495;49.922;7.966;2023-02-08T01:17:46;13.93;;;6.32;;
70132;SDS011;57495;49.922;7.966;2023-02-08T01:19:48;15.00;;;7.07;;
70132;SDS011;57495;49.922;7.966;2023-02-08T01:21:49;17.53;;;7.50;;
70132;SDS011;57495;49.922;7.966;2023-02-08T01:23:51;13.40;;;6.57;;
70132;SDS011;57495;49.922;7.966;2023-02-08T01:25:54;14.98;;;7.60;;
70132;SDS011;57495;49.922;7.966;2023-02-08T01:27:55;14.35;;;7.13;;
70132;SDS011;57495;49.922;7.966;2023-02-08T01:29:56;13.27;;;7.57;;
70132;SDS011;57495;49.922;7.966;2023-02-08T01:31:58;14.60;;;6.37;;
70132;SDS011;57495;49.922;7.966;2023-02-08T01:34:00;17.05;;;6.80;;
70132;SDS011;57495;49.922;7.966;2023-02-08T01:36:02;13.60;;;6.75;;
70132;SDS011;57495;49.922;7.966;2023-02-08T01:38:04;12.63;;;5.88;;
70132;SDS011;57495;49.922;7.966;2023-02-08T01:40:06;17.13;;;7.43;;
70132;SDS011;57495;49.922;7.966;2023-02-08T01:42:10;16.37;;;6.97;;
70132;SDS011;57495;49.922;7.966;2023-02-08T01:46:52;13.27;;;6.63;;
70132;SDS011;57495;49.922;7.966;2023-02-08T01:48:53;16.80;;;6.28;;
70132;SDS011;57495;49.922;7.966;2023-02-08T01:51:02;14.07;;;7.05;;
70132;SDS011;57495;49.922;7.966;2023-02-08T01:53:11;12.63;;;5.90;;
70132;SDS011;57495;49.922;7.966;2023-02-08T01:55:13;13.00;;;6.20;;
70132;SDS011;57495;49.922;7.966;2023-02-08T01:57:21;15.05;;;7.55;;
70132;SDS011;57495;49.922;7.966;2023-02-08T01:59:23;14.57;;;6.70;;
70132;SDS011;57495;49.922;7.966;2023-02-08T02:01:30;15.18;;;7.38;;
70132;SDS011;57495;49.922;7.966;2023-02-08T02:03:32;13.80;;;7.07;;
70132;SDS011;57495;49.922;7.966;2023-02-08T02:05:40;15.07;;;6.38;;
70132;SDS011;57495;49.922;7.966;2023-02-08T02:07:43;15.98;;;7.90;;
70132;SDS011;57495;49.922;7.966;2023-02-08T02:09:46;16.60;;;6.65;;
70132;SDS011;57495;49.922;7.966;2023-02-08T02:11:53;14.23;;;6.85;;
70132;SDS011;57495;49.922;7.966;2023-02-08T02:13:57;16.80;;;7.23;;
70132;SDS011;57495;49.922;7.966;2023-02-08T02:15:58;16.08;;;7.15;;
70132;SDS011;57495;49.922;7.966;2023-02-08T02:18:00;17.23;;;8.43;;
70132;SDS011;57495;49.922;7.966;2023-02-08T02:20:03;15.68;;;7.80;;
70132;SDS011;57495;49.922;7.966;2023-02-08T02:22:15;14.75;;;7.72;;
70132;SDS011;57495;49.922;7.966;2023-02-08T02:24:57;16.13;;;7.23;;
70132;SDS011;57495;49.922;7.966;2023-02-08T02:27:18;16.70;;;7.28;;
70132;SDS011;57495;49.922;7.966;2023-02-08T02:32:10;14.50;;;6.32;;
70132;SDS011;57495;49.922;7.966;2023-02-08T02:34:28;13.00;;;6.60;;
70132;SDS011;57495;49.922;7.966;2023-02-08T02:36:40;13.97;;;7.00;;
70132;SDS011;57495;49.922;7.966;2023-02-08T02:38:53;15.05;;;6.68;;
70132;SDS011;57495;49.922;7.966;2023-02-08T02:41:05;13.32;;;6.30;;
70132;SDS011;57495;49.922;7.966;2023-02-08T02:43:14;14.60;;;6.80;;
70132;SDS011;57495;49.922;7.966;2023-02-08T02:45:39;17.58;;;7.55;;
70132;SDS011;57495;49.922;7.966;2023-02-08T02:47:51;17.73;;;7.77;;
70132;SDS011;57495;49.922;7.966;2023-02-08T02:50:01;16.58;;;7.18;;
70132;SDS011;57495;49.922;7.966;2023-02-08T02:52:10;17.48;;;8.02;;
70132;SDS011;57495;49.922;7.966;2023-02-08T02:54:16;13.90;;;6.45;;
70132;SDS011;57495;49.922;7.966;2023-02-08T02:56:21;14.88;;;6.65;;
70132;SDS011;57495;49.922;7.966;2023-02-08T02:58:25;13.50;;;6.33;;
70132;SDS011;57495;49.922;7.966;2023-02-08T03:00:28;16.50;;;6.85;;
70132;SDS011;57495;49.922;7.966;2023-02-08T03:02:31;18.08;;;7.25;;
70132;SDS011;57495;49.922;7.966;2023-02-08T03:04:51;16.80;;;7.07;;
70132;SDS011;57495;49.922;7.966;2023-02-08T03:06:57;14.77;;;6.75;;
70132;SDS011;57495;49.922;7.966;2023-02-08T03:09:07;15.67;;;7.30;;
70132;SDS011;57495;49.922;7.966;2023-02-08T03:11:20;14.00;;;7.03;;
70132;SDS011;57495;49.922;7.966;2023-02-08T03:13:26;13.88;;;7.35;;
70132;SDS011;57495;49.922;7.966;2023-02-08T03:15:44;13.02;;;6.70;;
70132;SDS011;57495;49.922;7.966;2023-02-08T03:17:59;13.43;;;7.53;;
70132;SDS011;57495;49.922;7.966;2023-02-08T03:20:14;17.33;;;8.20;;
70132;SDS011;57495;49.922;7.966;2023-02-08T03:22:21;14.68;;;7.82;;
70132;SDS011;57495;49.922;7.966;2023-02-08T03:24:30;16.67;;;8.05;;
70132;SDS011;57495;49.922;7.966;2023-02-08T03:26:41;16.58;;;8.10;;
70132;SDS011;57495;49.922;7.966;2023-02-08T03:28:53;17.10;;;8.32;;
70132;SDS011;57495;49.922;7.966;2023-02-08T03:31:01;16.83;;;7.37;;
70132;SDS011;57495;49.922;7.966;2023-02-08T03:33:10;17.38;;;7.63;;
70132;SDS011;57495;49.922;7.966;2023-02-08T03:35:18;13.50;;;7.32;;
70132;SDS011;57495;49.922;7.966;2023-02-08T03:37:23;14.18;;;6.70;;
70132;SDS011;57495;49.922;7.966;2023-02-08T03:39:29;16.92;;;8.48;;
70132;SDS011;57495;49.922;7.966;2023-02-08T03:41:35;15.53;;;7.50;;
70132;SDS011;57495;49.922;7.966;2023-02-08T03:43:41;15.40;;;7.60;;
70132;SDS011;57495;49.922;7.966;2023-02-08T03:45:48;15.55;;;7.68;;
70132;SDS011;57495;49.922;7.966;2023-02-08T03:47:52;19.13;;;7.97;;
70132;SDS011;57495;49.922;7.966;2023-02-08T03:49:57;15.02;;;8.43;;
70132;SDS011;57495;49.922;7.966;2023-02-08T03:52:06;14.47;;;6.93;;
70132;SDS011;57495;49.922;7.966;2023-02-08T03:54:10;16.23;;;7.28;;
70132;SDS011;57495;49.922;7.966;2023-02-08T03:56:17;13.65;;;6.78;;
70132;SDS011;57495;49.922;7.966;2023-02-08T03:58:27;14.93;;;6.43;;
70132;SDS011;57495;49.922;7.966;2023-02-08T04:00:34;16.92;;;7.88;;
70132;SDS011;57495;49.922;7.966;2023-02-08T04:02:41;13.47;;;6.73;;
70132;SDS011;57495;49.922;7.966;2023-02-08T04:04:48;18.13;;;6.65;;
70132;SDS011;57495;49.922;7.966;2023-02-08T04:06:51;14.23;;;7.35;;
70132;SDS011;57495;49.922;7.966;2023-02-08T04:08:55;13.77;;;6.70;;
70132;SDS011;57495;49.922;7.966;2023-02-08T04:10:57;15.82;;;6.85;;
70132;SDS011;57495;49.922;7.966;2023-02-08T04:12:58;15.67;;;6.27;;
70132;SDS011;57495;49.922;7.966;2023-02-08T04:15:00;12.63;;;6.00;;
70132;SDS011;57495;49.922;7.966;2023-02-08T04:17:01;13.23;;;6.43;;
70132;SDS011;57495;49.922;7.966;2023-02-08T04:19:03;13.95;;;6.10;;
70132;SDS011;57495;49.922;7.966;2023-02-08T04:21:04;13.80;;;6.60;;
70132;SDS011;57495;49.922;7.966;2023-02-08T04:23:06;14.93;;;6.90;;
70132;SDS011;57495;49.922;7.966;2023-02-08T04:25:09;15.13;;;6.80;;
70132;SDS011;57495;49.922;7.966;2023-02-08T04:27:10;14.50;;;7.20;;
70132;SDS011;57495;49.922;7.966;2023-02-08T04:29:12;12.80;;;6.00;;
70132;SDS011;57495;49.922;7.966;2023-02-08T04:31:13;15.15;;;6.75;;
70132;SDS011;57495;49.922;7.966;2023-02-08T04:33:15;12.13;;;5.57;;
70132;SDS011;57495;49.922;7.966;2023-02-08T04:35:16;11.57;;;5.78;;
70132;SDS011;57495;49.922;7.966;2023-02-08T04:37:18;13.63;;;6.20;;
70132;SDS011;57495;49.922;7.966;2023-02-08T04:39:19;15.10;;;6.78;;
70132;SDS011;57495;49.922;7.966;2023-02-08T04:41:22;15.48;;;6.97;;
70132;SDS011;57495;49.922;7.966;2023-02-08T04:43:24;14.10;;;6.47;;
70132;SDS011;57495;49.922;7.966;2023-02-08T04:45:25;16.58;;;7.30;;
70132;SDS011;57495;49.922;7.966;2023-02-08T04:47:28;17.75;;;7.07;;
70132;SDS011;57495;49.922;7.966;2023-02-08T04:49:30;14.77;;;6.55;;
70132;SDS011;57495;49.922;7.966;2023-02-08T04:51:31;17.05;;;7.03;;
70132;SDS011;57495;49.922;7.966;2023-02-08T04:53:33;14.10;;;6.57;;
70132;SDS011;57495;49.922;7.966;2023-02-08T04:55:34;15.70;;;6.75;;
70132;SDS011;57495;49.922;7.966;2023-02-08T04:57:37;15.00;;;6.90;;
70132;SDS011;57495;49.922;7.966;2023-02-08T04:59:38;15.90;;;7.60;;
70132;SDS011;57495;49.922;7.966;2023-02-08T05:01:40;14.65;;;7.28;;
70132;SDS011;57495;49.922;7.966;2023-02-08T05:03:41;15.37;;;7.00;;
70132;SDS011;57495;49.922;7.966;2023-02-08T05:05:43;14.57;;;5.95;;
70132;SDS011;57495;49.922;7.966;2023-02-08T05:07:44;13.63;;;6.80;;
70132;SDS011;57495;49.922;7.966;2023-02-08T05:09:46;13.55;;;6.97;;
70132;SDS011;57495;49.922;7.966;2023-02-08T05:11:47;13.38;;;6.13;;
70132;SDS011;57495;49.922;7.966;2023-02-08T05:13:50;12.73;;;6.03;;
70132;SDS011;57495;49.922;7.966;2023-02-08T05:15:52;13.43;;;6.20;;
70132;SDS011;57495;49.922;7.966;2023-02-08T05:17:54;14.18;;;6.43;;
70132;SDS011;57495;49.922;7.966;2023-02-08T05:19:55;13.88;;;5.85;;
70132;SDS011;57495;49.922;7.966;2023-02-08T05:21:56;13.90;;;6.20;;
70132;SDS011;57495;49.922;7.966;2023-02-08T05:23:58;15.00;;;6.50;;
70132;SDS011;57495;49.922;7.966;2023-02-08T05:25:59;13.27;;;6.60;;
70132;SDS011;57495;49.922;7.966;2023-02-08T05:28:06;15.73;;;6.45;;
70132;SDS011;57495;49.922;7.966;2023-02-08T05:30:09;13.73;;;6.22;;
70132;SDS011;57495;49.922;7.966;2023-02-08T05:32:11;17.08;;;6.47;;
70132;SDS011;57495;49.922;7.966;2023-02-08T05:34:13;12.43;;;6.13;;
70132;SDS011;57495;49.922;7.966;2023-02-08T05:36:14;17.23;;;6.72;;
70132;SDS011;57495;49.922;7.966;2023-02-08T05:38:16;13.57;;;6.63;;
70132;SDS011;57495;49.922;7.966;2023-02-08T05:40:17;14.95;;;5.95;;
70132;SDS011;57495;49.922;7.966;2023-02-08T05:42:19;13.65;;;6.95;;
70132;SDS011;57495;49.922;7.966;2023-02-08T05:44:20;13.33;;;5.83;;
70132;SDS011;57495;49.922;7.966;2023-02-08T05:46:23;16.33;;;7.53;;
70132;SDS011;57495;49.922;7.966;2023-02-08T05:48:24;16.20;;;6.53;;
70132;SDS011;57495;49.922;7.966;2023-02-08T05:50:26;16.30;;;7.85;;
70132;SDS011;57495;49.922;7.966;2023-02-08T05:52:27;16.27;;;7.30;;
70132;SDS011;57495;49.922;7.966;2023-02-08T05:54:29;18.10;;;8.40;;
70132;SDS011;57495;49.922;7.966;2023-02-08T05:56:30;18.45;;;8.20;;
70132;SDS011;57495;49.922;7.966;2023-02-08T05:58:32;18.67;;;8.98;;
70132;SDS011;57495;49.922;7.966;2023-02-08T06:00:34;17.20;;;7.50;;
70132;SDS011;57495;49.922;7.966;2023-02-08T06:02:37;17.40;;;8.75;;
70132;SDS011;57495;49.922;7.966;2023-02-08T06:04:38;15.20;;;8.00;;
70132;SDS011;57495;49.922;7.966;2023-02-08T06:06:40;15.07;;;7.25;;
70132;SDS011;57495;49.922;7.966;2023-02-08T06:08:41;14.10;;;7.43;;
70132;SDS011;57495;49.922;7.966;2023-02-08T06:10:43;15.07;;;6.82;;
70132;SDS011;57495;49.922;7.966;2023-02-08T06:12:44;15.02;;;6.80;;
70132;SDS011;57495;49.922;7.966;2023-02-08T06:14:46;13.37;;;6.00;;
70132;SDS011;57495;49.922;7.966;2023-02-08T06:16:47;16.55;;;7.60;;
70132;SDS011;57495;49.922;7.966;2023-02-08T06:18:50;16.15;;;7.20;;
70132;SDS011;57495;49.922;7.966;2023-02-08T06:20:52;12.23;;;6.15;;
70132;SDS011;57495;49.922;7.966;2023-02-08T06:22:54;18.60;;;6.60;;
70132;SDS011;57495;49.922;7.966;2023-02-08T06:24:55;12.03;;;6.23;;
70132;SDS011;57495;49.922;7.966;2023-02-08T06:26:57;11.98;;;5.60;;
70132;SDS011;57495;49.922;7.966;2023-02-08T06:28:58;13.50;;;5.95;;
70132;SDS011;57495;49.922;7.966;2023-02-08T06:31:00;13.77;;;6.25;;
70132;SDS011;57495;49.922;7.966;2023-02-08T06:33:02;12.68;;;5.78;;
70132;SDS011;57495;49.922;7.966;2023-02-08T06:35:05;14.47;;;5.90;;
70132;SDS011;57495;49.922;7.966;2023-02-08T06:37:07;11.82;;;5.25;;
70132;SDS011;57495;49.922;7.966;2023-02-08T06:39:08;14.57;;;5.28;;
70132;SDS011;57495;49.922;7.966;2023-02-08T06:41:10;12.82;;;5.40;;
70132;SDS011;57495;49.922;7.966;2023-02-08T06:43:11;12.85;;;5.60;;
70132;SDS011;57495;49.922;7.966;2023-02-08T06:45:13;10.83;;;4.63;;
70132;SDS011;57495;49.922;7.966;2023-02-08T06:47:15;12.15;;;4.82;;
70132;SDS011;57495;49.922;7.966;2023-02-08T06:49:16;12.70;;;4.85;;
70132;SDS011;57495;49.922;7.966;2023-02-08T06:51:19;12.13;;;5.32;;
70132;SDS011;57495;49.922;7.966;2023-02-08T06:53:20;16.63;;;6.57;;
70132;SDS011;57495;49.922;7.966;2023-02-08T06:55:22;16.17;;;6.17;;
70132;SDS011;57495;49.922;7.966;2023-02-08T06:57:23;15.05;;;6.90;;
70132;SDS011;57495;49.922;7.966;2023-02-08T06:59:25;18.58;;;7.95;;
70132;SDS011;57495;49.922;7.966;2023-02-08T07:01:26;19.35;;;8.52;;
70132;SDS011;57495;49.922;7.966;2023-02-08T07:03:28;23.00;;;9.35;;
70132;SDS011;57495;49.922;7.966;2023-02-08T07:05:29;19.37;;;8.90;;
70132;SDS011;57495;49.922;7.966;2023-02-08T07:07:32;21.75;;;9.35;;
70132;SDS011;57495;49.922;7.966;2023-02-08T07:09:33;18.10;;;8.75;;
70132;SDS011;57495;49.922;7.966;2023-02-08T07:11:35;21.67;;;8.30;;
70132;SDS011;57495;49.922;7.966;2023-02-08T07:13:37;21.73;;;8.10;;
70132;SDS011;57495;49.922;7.966;2023-02-08T07:15:38;20.53;;;8.90;;
70132;SDS011;57495;49.922;7.966;2023-02-08T07:17:40;23.67;;;9.63;;
70132;SDS011;57495;49.922;7.966;2023-02-08T07:19:41;25.50;;;10.23;;
70132;SDS011;57495;49.922;7.966;2023-02-08T07:21:43;25.55;;;10.75;;
70132;SDS011;57495;49.922;7.966;2023-02-08T07:23:46;25.15;;;9.75;;
70132;SDS011;57495;49.922;7.966;2023-02-08T07:25:54;23.40;;;10.67;;
70132;SDS011;57495;49.922;7.966;2023-02-08T07:27:56;17.42;;;8.80;;
70132;SDS011;57495;49.922;7.966;2023-02-08T07:29:58;18.65;;;9.45;;
70132;SDS011;57495;49.922;7.966;2023-02-08T07:32:00;21.00;;;8.80;;
70132;SDS011;57495;49.922;7.966;2023-02-08T07:34:02;17.35;;;8.00;;
70132;SDS011;57495;49.922;7.966;2023-02-08T07:36:04;16.50;;;6.80;;
70132;SDS011;57495;49.922;7.966;2023-02-08T07:38:06;20.42;;;8.30;;
70132;SDS011;57495;49.922;7.966;2023-02-08T07:40:10;20.00;;;7.68;;
70132;SDS011;57495;49.922;7.966;2023-02-08T07:42:12;21.02;;;9.40;;
70132;SDS011;57495;49.922;7.966;2023-02-08T07:44:15;18.38;;;9.10;;
70132;SDS011;57495;49.922;7.966;2023-02-08T07:46:18;16.27;;;7.57;;
70132;SDS011;57495;49.922;7.966;2023-02-08T07:48:20;18.95;;;8.43;;
70132;SDS011;57495;49.922;7.966;2023-02-08T07:50:22;18.20;;;8.02;;
70132;SDS011;57495;49.922;7.966;2023-02-08T07:52:23;18.45;;;8.75;;
70132;SDS011;57495;49.922;7.966;2023-02-08T07:54:25;19.23;;;9.40;;
70132;SDS011;57495;49.922;7.966;2023-02-08T07:56:28;20.00;;;10.20;;
70132;SDS011;57495;49.922;7.966;2023-02-08T07:58:29;16.42;;;8.45;;
70132;SDS011;57495;49.922;7.966;2023-02-08T08:00:31;19.23;;;9.57;;
70132;SDS011;57495;49.922;7.966;2023-02-08T08:02:35;15.77;;;6.93;;
70132;SDS011;57495;49.922;7.966;2023-02-08T08:04:37;13.52;;;6.78;;
70132;SDS011;57495;49.922;7.966;2023-02-08T08:06:38;11.77;;;5.40;;
70132;SDS011;57495;49.922;7.966;2023-02-08T08:08:40;13.32;;;5.13;;
70132;SDS011;57495;49.922;7.966;2023-02-08T08:10:42;13.18;;;6.28;;
70132;SDS011;57495;49.922;7.966;2023-02-08T08:12:45;11.73;;;5.38;;
70132;SDS011;57495;49.922;7.966;2023-02-08T08:14:46;12.43;;;5.43;;
70132;SDS011;57495;49.922;7.966;2023-02-08T08:16:48;12.27;;;5.27;;
70132;SDS011;57495;49.922;7.966;2023-02-08T08:18:49;12.57;;;5.47;;
70132;SDS011;57495;49.922;7.966;2023-02-08T08:20:51;10.52;;;4.90;;
70132;SDS011;57495;49.922;7.966;2023-02-08T08:22:52;10.82;;;4.70;;
70132;SDS011;57495;49.922;7.966;2023-02-08T08:24:54;11.77;;;5.07;;
70132;SDS011;57495;49.922;7.966;2023-02-08T08:26:57;12.97;;;5.73;;
70132;SDS011;57495;49.922;7.966;2023-02-08T08:29:00;12.13;;;5.55;;
70132;SDS011;57495;49.922;7.966;2023-02-08T08:31:02;12.80;;;5.60;;
70132;SDS011;57495;49.922;7.966;2023-02-08T08:33:03;12.88;;;5.78;;
70132;SDS011;57495;49.922;7.966;2023-02-08T08:35:06;14.18;;;5.55;;
70132;SDS011;57495;49.922;7.966;2023-02-08T08:37:08;13.17;;;5.43;;
70132;SDS011;57495;49.922;7.966;2023-02-08T08:39:10;12.70;;;5.43;;
70132;SDS011;57495;49.922;7.966;2023-02-08T08:41:13;12.63;;;5.70;;
70132;SDS011;57495;49.922;7.966;2023-02-08T08:43:17;13.35;;;5.88;;
70132;SDS011;57495;49.922;7.966;2023-02-08T08:45:20;12.90;;;5.25;;
70132;SDS011;57495;49.922;7.966;2023-02-08T08:47:22;12.93;;;5.37;;
70132;SDS011;57495;49.922;7.966;2023-02-08T08:49:23;12.43;;;5.50;;
70132;SDS011;57495;49.922;7.966;2023-02-08T08:51:25;12.85;;;5.50;;
70132;SDS011;57495;49.922;7.966;2023-02-08T08:53:27;12.63;;;5.47;;
70132;SDS011;57495;49.922;7.966;2023-02-08T08:55:28;14.02;;;6.18;;
70132;SDS011;57495;49.922;7.966;2023-02-08T08:57:30;13.80;;;5.77;;
70132;SDS011;57495;49.922;7.966;2023-02-08T08:59:31;12.73;;;5.60;;
70132;SDS011;57495;49.922;7.966;2023-02-08T09:01:35;14.77;;;6.63;;
70132;SDS011;57495;49.922;7.966;2023-02-08T09:03:37;13.38;;;5.72;;
70132;SDS011;57495;49.922;7.966;2023-02-08T09:05:38;15.80;;;6.70;;
70132;SDS011;57495;49.922;7.966;2023-02-08T09:07:40;13.57;;;6.07;;
70132;SDS011;57495;49.922;7.966;2023-02-08T09:09:41;14.10;;;6.63;;
70132;SDS011;57495;49.922;7.966;2023-02-08T09:11:46;15.77;;;6.35;;
70132;SDS011;57495;49.922;7.966;2023-02-08T09:13:48;14.90;;;6.57;;
70132;SDS011;57495;49.922;7.966;2023-02-08T09:15:51;13.10;;;6.25;;
70132;SDS011;57495;49.922;7.966;2023-02-08T09:17:54;15.53;;;7.43;;
70132;SDS011;57495;49.922;7.966;2023-02-08T09:19:56;14.82;;;6.90;;
70132;SDS011;57495;49.922;7.966;2023-02-08T09:21:58;16.98;;;7.65;;
70132;SDS011;57495;49.922;7.966;2023-02-08T09:24:00;12.25;;;6.60;;
70132;SDS011;57495;49.922;7.966;2023-02-08T09:26:02;13.85;;;6.63;;
70132;SDS011;57495;49.922;7.966;2023-02-08T09:28:06;16.17;;;6.50;;
70132;SDS011;57495;49.922;7.966;2023-02-08T09:30:08;14.65;;;6.32;;
70132;SDS011;57495;49.922;7.966;2023-02-08T09:32:10;13.15;;;6.40;;
70132;SDS011;57495;49.922;7.966;2023-02-08T09:34:13;17.48;;;7.00;;
70132;SDS011;57495;49.922;7.966;2023-02-08T09:36:14;15.25;;;6.88;;
70132;SDS011;57495;49.922;7.966;2023-02-08T09:38:16;13.53;;;6.70;;
70132;SDS011;57495;49.922;7.966;2023-02-08T09:40:20;15.43;;;6.97;;
70132;SDS011;57495;49.922;7.966;2023-02-08T09:42:25;16.48;;;7.13;;
70132;SDS011;57495;49.922;7.966;2023-02-08T09:44:34;15.45;;;6.55;;
70132;SDS011;57495;49.922;7.966;2023-02-08T09:46:49;14.52;;;6.63;;
70132;SDS011;57495;49.922;7.966;2023-02-08T09:48:55;16.43;;;7.70;;
70132;SDS011;57495;49.922;7.966;2023-02-08T09:51:03;13.32;;;6.88;;
70132;SDS011;57495;49.922;7.966;2023-02-08T09:53:12;14.70;;;7.72;;
70132;SDS011;57495;49.922;7.966;2023-02-08T09:55:20;27.50;;;10.20;;
70132;SDS011;57495;49.922;7.966;2023-02-08T09:57:30;16.20;;;7.80;;
70132;SDS011;57495;49.922;7.966;2023-02-08T09:59:35;15.13;;;6.93;;
70132;SDS011;57495;49.922;7.966;2023-02-08T10:01:41;14.88;;;7.07;;
70132;SDS011;57495;49.922;7.966;2023-02-08T10:03:43;15.93;;;7.22;;
70132;SDS011;57495;49.922;7.966;2023-02-08T10:05:45;15.73;;;8.00;;
70132;SDS011;57495;49.922;7.966;2023-02-08T10:07:48;14.95;;;7.22;;
70132;SDS011;57495;49.922;7.966;2023-02-08T10:09:49;14.87;;;8.40;;
70132;SDS011;57495;49.922;7.966;2023-02-08T10:11:53;16.30;;;7.65;;
70132;SDS011;57495;49.922;7.966;2023-02-08T10:14:10;16.88;;;8.30;;
70132;SDS011;57495;49.922;7.966;2023-02-08T10:16:30;15.15;;;7.80;;
70132;SDS011;57495;49.922;7.966;2023-02-08T10:18:43;13.77;;;7.38;;
70132;SDS011;57495;49.922;7.966;2023-02-08T10:20:53;13.47;;;6.80;;
70132;SDS011;57495;49.922;7.966;2023-02-08T10:23:10;15.40;;;7.38;;
70132;SDS011;57495;49.922;7.966;2023-02-08T10:25:29;15.43;;;8.38;;
70132;SDS011;57495;49.922;7.966;2023-02-08T10:27:45;14.65;;;8.00;;
70132;SDS011;57495;49.922;7.966;2023-02-08T10:30:14;16.02;;;7.50;;
70132;SDS011;57495;49.922;7.966;2023-02-08T10:34:55;15.55;;;7.68;;
70132;SDS011;57495;49.922;7.966;2023-02-08T10:37:00;16.70;;;7.82;;
70132;SDS011;57495;49.922;7.966;2023-02-08T10:39:15;16.55;;;7.20;;
70132;SDS011;57495;49.922;7.966;2023-02-08T10:41:22;14.48;;;7.63;;
70132;SDS011;57495;49.922;7.966;2023-02-08T10:43:32;15.90;;;7.33;;
70132;SDS011;57495;49.922;7.966;2023-02-08T10:45:40;16.15;;;7.10;;
70132;SDS011;57495;49.922;7.966;2023-02-08T10:47:50;14.63;;;7.13;;
70132;SDS011;57495;49.922;7.966;2023-02-08T10:49:56;14.82;;;7.40;;
70132;SDS011;57495;49.922;7.966;2023-02-08T10:52:02;14.27;;;7.82;;
70132;SDS011;57495;49.922;7.966;2023-02-08T10:54:03;16.73;;;8.10;;
70132;SDS011;57495;49.922;7.966;2023-02-08T10:56:10;15.48;;;7.45;;
70132;SDS011;57495;49.922;7.966;2023-02-08T10:58:24;15.73;;;8.25;;
70132;SDS011;57495;49.922;7.966;2023-02-08T11:00:26;14.55;;;7.53;;
70132;SDS011;57495;49.922;7.966;2023-02-08T11:02:32;14.55;;;7.65;;
70132;SDS011;57495;49.922;7.966;2023-02-08T11:04:35;14.30;;;7.30;;
70132;SDS011;57495;49.922;7.966;2023-02-08T11:07:16;13.15;;;6.95;;
70132;SDS011;57495;49.922;7.966;2023-02-08T11:09:21;13.15;;;7.05;;
70132;SDS011;57495;49.922;7.966;2023-02-08T11:11:24;15.32;;;7.35;;
70132;SDS011;57495;49.922;7.966;2023-02-08T11:13:31;14.40;;;7.93;;
70132;SDS011;57495;49.922;7.966;2023-02-08T11:15:36;14.40;;;7.17;;
70132;SDS011;57495;49.922;7.966;2023-02-08T11:17:39;15.65;;;7.25;;
70132;SDS011;57495;49.922;7.966;2023-02-08T11:19:42;13.95;;;6.35;;
70132;SDS011;57495;49.922;7.966;2023-02-08T11:21:48;14.10;;;7.20;;
70132;SDS011;57495;49.922;7.966;2023-02-08T11:23:54;14.10;;;7.50;;
70132;SDS011;57495;49.922;7.966;2023-02-08T11:26:14;14.37;;;7.43;;
70132;SDS011;57495;49.922;7.966;2023-02-08T11:28:22;12.10;;;6.85;;
70132;SDS011;57495;49.922;7.966;2023-02-08T11:30:26;15.65;;;6.22;;
70132;SDS011;57495;49.922;7.966;2023-02-08T11:32:28;14.10;;;6.15;;
70132;SDS011;57495;49.922;7.966;2023-02-08T11:34:32;12.82;;;7.03;;
70132;SDS011;57495;49.922;7.966;2023-02-08T11:36:43;13.33;;;7.00;;
70132;SDS011;57495;49.922;7.966;2023-02-08T11:38:48;12.68;;;7.22;;
70132;SDS011;57495;49.922;7.966;2023-02-08T11:40:49;12.63;;;6.88;;
70132;SDS011;57495;49.922;7.966;2023-02-08T11:42:52;14.32;;;7.57;;
70132;SDS011;57495;49.922;7.966;2023-02-08T11:44:54;12.88;;;6.82;;
70132;SDS011;57495;49.922;7.966;2023-02-08T11:46:59;13.37;;;6.70;;
70132;SDS011;57495;49.922;7.966;2023-02-08T11:49:02;12.00;;;6.45;;
70132;SDS011;57495;49.922;7.966;2023-02-08T11:51:04;14.00;;;7.72;;
70132;SDS011;57495;49.922;7.966;2023-02-08T11:53:09;10.75;;;5.82;;
70132;SDS011;57495;49.922;7.966;2023-02-08T11:55:24;13.00;;;6.60;;
70132;SDS011;57495;49.922;7.966;2023-02-08T11:57:27;12.57;;;6.60;;
70132;SDS011;57495;49.922;7.966;2023-02-08T11:59:31;14.02;;;6.32;;
70132;SDS011;57495;49.922;7.966;2023-02-08T12:01:33;12.25;;;6.38;;
70132;SDS011;57495;49.922;7.966;2023-02-08T12:03:37;12.18;;;6.55;;
70132;SDS011;57495;49.922;7.966;2023-02-08T12:05:42;13.70;;;6.75;;
70132;SDS011;57495;49.922;7.966;2023-02-08T12:07:55;12.47;;;6.43;;
70132;SDS011;57495;49.922;7.966;2023-02-08T12:12:52;13.27;;;6.05;;
70132;SDS011;57495;49.922;7.966;2023-02-08T12:15:09;11.38;;;6.05;;
70132;SDS011;57495;49.922;7.966;2023-02-08T12:17:28;11.60;;;5.88;;
70132;SDS011;57495;49.922;7.966;2023-02-08T12:19:58;16.70;;;6.60;;
70132;SDS011;57495;49.922;7.966;2023-02-08T12:22:14;14.18;;;6.68;;
70132;SDS011;57495;49.922;7.966;2023-02-08T12:24:21;13.00;;;6.53;;
70132;SDS011;57495;49.922;7.966;2023-02-08T12:26:40;12.70;;;6.32;;
70132;SDS011;57495;49.922;7.966;2023-02-08T12:28:56;13.25;;;6.13;;